Time;durP1;ratioP1;P1;durP2;ratioP2;P2;SDS_P1;SDS_P2;PMS_P1;PMS_P2;Temp;Humidity;BMP_temperature;BMP_pressure;BME280_temperature;BME280_humidity;BME280_pressure;Samples;Min_cycle;Max_cycle;Signal;HPM_P1;HPM_P2
2023/04/06 00:01:56;;;;;;;13.93;7.75;;;8.10;53.60;;;;;;5052371;28;20353;-61
2023/04/06 00:04:22;;;;;;;12.55;7.55;;;8.00;53.70;;;;;;5040089;28;20033;-61
2023/04/06 00:06:48;;;;;;;12.02;7.07;;;8.00;53.80;;;;;;5039477;28;20030;-61
2023/04/06 00:09:14;;;;;;;12.25;6.55;;;8.00;53.90;;;;;;5033412;28;20032;-61
2023/04/06 00:11:40;;;;;;;12.90;6.90;;;8.00;53.90;;;;;;5029733;28;20132;-61
2023/04/06 00:14:07;;;;;;;12.25;7.13;;;8.00;53.80;;;;;;5044170;28;20100;-61
2023/04/06 00:16:32;;;;;;;12.20;6.60;;;7.90;53.90;;;;;;5040354;28;20032;-61
2023/04/06 00:18:58;;;;;;;11.07;6.97;;;7.90;53.90;;;;;;5048667;28;20025;-60
2023/04/06 00:21:25;;;;;;;11.70;7.13;;;7.90;54.00;;;;;;5036655;28;20068;-61
2023/04/06 00:23:51;;;;;;;11.82;6.63;;;7.90;54.00;;;;;;5048761;28;20450;-61
2023/04/06 00:26:17;;;;;;;13.95;7.07;;;7.90;54.10;;;;;;5036663;28;20074;-61
2023/04/06 00:28:45;;;;;;;12.40;7.25;;;7.80;54.10;;;;;;5036889;28;20061;-61
2023/04/06 00:31:11;;;;;;;14.07;7.30;;;7.80;54.20;;;;;;5032747;28;20056;-61
2023/04/06 00:33:37;;;;;;;13.57;6.78;;;7.80;54.20;;;;;;5046064;28;20472;-61
2023/04/06 00:36:03;;;;;;;12.23;6.68;;;7.80;54.30;;;;;;5047030;28;20454;-61
2023/04/06 00:38:29;;;;;;;12.40;7.13;;;7.80;54.30;;;;;;5042126;28;20025;-61
2023/04/06 00:40:55;;;;;;;12.05;7.03;;;7.70;54.30;;;;;;5040387;28;20021;-61
2023/04/06 00:43:21;;;;;;;12.45;7.05;;;7.70;54.40;;;;;;5025861;28;20044;-61
2023/04/06 00:45:46;;;;;;;13.13;7.57;;;7.70;54.40;;;;;;5049055;28;20033;-61
2023/04/06 00:48:13;;;;;;;12.00;6.35;;;7.70;54.40;;;;;;5041565;28;20401;-61
2023/04/06 00:50:38;;;;;;;12.13;6.88;;;7.70;54.50;;;;;;5039039;28;20112;-61
2023/04/06 00:53:04;;;;;;;13.60;6.95;;;7.70;54.50;;;;;;5044385;28;20120;-61
2023/04/06 00:55:30;;;;;;;12.10;6.78;;;7.70;54.60;;;;;;5049833;28;20029;-61
2023/04/06 00:58:00;;;;;;;15.43;7.18;;;7.60;54.60;;;;;;5018418;28;20112;-60
2023/04/06 01:00:26;;;;;;;12.27;7.28;;;7.60;54.70;;;;;;5017992;28;20032;-61
2023/04/06 01:02:57;;;;;;;11.35;6.90;;;7.60;54.70;;;;;;5035800;28;20038;-61
2023/04/06 01:05:40;;;;;;;11.10;6.10;;;7.60;54.80;;;;;;5019693;28;20033;-61
2023/04/06 01:08:08;;;;;;;13.10;6.03;;;7.50;54.90;;;;;;5032156;28;20079;-62
2023/04/06 01:10:35;;;;;;;12.35;7.00;;;7.50;55.10;;;;;;5020534;28;20032;-62
2023/04/06 01:13:09;;;;;;;13.52;7.32;;;7.50;55.10;;;;;;5037036;28;20056;-61
2023/04/06 01:15:53;;;;;;;11.93;6.68;;;7.50;55.10;;;;;;5026744;28;20032;-62
2023/04/06 01:18:30;;;;;;;11.80;6.88;;;7.40;55.10;;;;;;5025591;28;20029;-62
2023/04/06 01:21:22;;;;;;;12.38;7.28;;;7.40;55.20;;;;;;5021816;28;20033;-62
2023/04/06 01:24:03;;;;;;;14.40;7.90;;;7.40;55.20;;;;;;5030225;28;20402;-62
2023/04/06 01:26:40;;;;;;;11.98;6.63;;;7.30;55.40;;;;;;5044835;28;20032;-62
2023/04/06 01:29:08;;;;;;;11.35;6.63;;;7.30;55.40;;;;;;5020989;28;20361;-62
2023/04/06 01:31:34;;;;;;;12.63;7.13;;;7.30;55.50;;;;;;5047277;28;20050;-62
2023/04/06 01:34:00;;;;;;;10.90;6.60;;;7.30;55.50;;;;;;5039906;28;20363;-62
2023/04/06 01:36:26;;;;;;;12.32;6.90;;;7.30;55.60;;;;;;5037467;28;20070;-62
2023/04/06 01:39:07;;;;;;;11.35;6.80;;;7.30;55.70;;;;;;5040243;28;20351;-62
2023/04/06 01:41:36;;;;;;;14.35;6.93;;;7.20;55.60;;;;;;5048994;28;20043;-62
2023/04/06 01:44:02;;;;;;;12.43;6.72;;;7.20;55.70;;;;;;5042622;28;20094;-62
2023/04/06 01:46:30;;;;;;;13.45;7.47;;;7.20;55.80;;;;;;5055901;28;20083;-62
2023/04/06 01:48:56;;;;;;;14.50;7.10;;;7.20;55.90;;;;;;5033226;28;20116;-62
2023/04/06 01:51:48;;;;;;;11.38;6.35;;;7.20;55.90;;;;;;5050560;28;20033;-62
2023/04/06 01:54:14;;;;;;;12.05;6.75;;;7.20;56.00;;;;;;5035945;28;20060;-62
2023/04/06 01:57:00;;;;;;;11.00;6.65;;;7.10;56.00;;;;;;5032551;28;20029;-62
2023/04/06 01:59:30;;;;;;;11.43;5.93;;;7.10;56.10;;;;;;5035671;28;20469;-62
2023/04/06 02:01:58;;;;;;;12.82;7.10;;;7.10;56.10;;;;;;5050897;28;20029;-62
2023/04/06 02:04:26;;;;;;;12.40;7.05;;;7.10;56.20;;;;;;5034382;28;20080;-62
2023/04/06 02:07:00;;;;;;;12.73;7.25;;;7.10;56.20;;;;;;5042565;28;20044;-62
2023/04/06 02:09:28;;;;;;;13.13;7.28;;;7.10;56.20;;;;;;5034451;28;20067;-62
2023/04/06 02:11:55;;;;;;;10.73;6.90;;;7.00;56.20;;;;;;5037314;28;20415;-62
2023/04/06 02:14:23;;;;;;;11.50;6.32;;;7.00;56.20;;;;;;5034017;28;20120;-62
2023/04/06 02:16:52;;;;;;;13.00;7.00;;;7.00;56.30;;;;;;5047971;28;20077;-62
2023/04/06 02:19:18;;;;;;;11.48;6.95;;;7.00;56.30;;;;;;5019081;28;20284;-62
2023/04/06 02:21:44;;;;;;;12.75;7.50;;;7.00;56.30;;;;;;5045524;28;20115;-62
2023/04/06 02:24:09;;;;;;;12.32;7.05;;;7.00;56.40;;;;;;5035718;28;20083;-62
2023/04/06 02:26:35;;;;;;;11.38;6.75;;;7.00;56.40;;;;;;5046601;28;20025;-62
2023/04/06 02:29:02;;;;;;;12.25;7.35;;;7.00;56.40;;;;;;5032827;28;20374;-62
2023/04/06 02:31:28;;;;;;;14.05;6.93;;;7.00;56.40;;;;;;5036708;28;20037;-62
2023/04/06 02:33:54;;;;;;;14.27;7.88;;;7.00;56.40;;;;;;5037472;28;20426;-62
2023/04/06 02:36:20;;;;;;;13.45;7.55;;;7.00;57.10;;;;;;5043004;28;20100;-62
2023/04/06 02:38:46;;;;;;;13.88;7.40;;;7.00;56.50;;;;;;5033454;28;20025;-62
2023/04/06 02:41:11;;;;;;;15.02;8.73;;;7.00;57.10;;;;;;5039688;28;20032;-62
2023/04/06 02:43:38;;;;;;;15.02;8.18;;;7.00;56.60;;;;;;5043869;28;20438;-62
2023/04/06 02:46:10;;;;;;;12.23;6.97;;;7.00;56.60;;;;;;5039346;28;20108;-62
2023/04/06 02:48:38;;;;;;;12.23;6.88;;;6.90;56.60;;;;;;5027523;28;20029;-62
2023/04/06 02:51:04;;;;;;;14.65;7.72;;;6.90;56.70;;;;;;5042433;28;20116;-62
2023/04/06 02:53:30;;;;;;;11.52;6.88;;;6.90;56.70;;;;;;5051416;28;20053;-62
2023/04/06 02:55:56;;;;;;;14.05;7.97;;;6.90;56.80;;;;;;5047311;28;20021;-62
2023/04/06 02:58:25;;;;;;;13.20;7.72;;;6.90;56.80;;;;;;5050753;28;20029;-61
2023/04/06 03:00:54;;;;;;;13.45;7.25;;;6.90;56.90;;;;;;5023319;28;20121;-62
2023/04/06 03:03:20;;;;;;;14.35;7.25;;;6.90;56.90;;;;;;5032198;28;20426;-62
2023/04/06 03:05:47;;;;;;;12.77;7.10;;;6.90;57.00;;;;;;5039695;28;20048;-62
2023/04/06 03:08:14;;;;;;;13.80;7.60;;;6.80;57.00;;;;;;5041926;28;20079;-62
2023/04/06 03:10:43;;;;;;;12.30;7.35;;;6.80;57.00;;;;;;5046978;28;20022;-62
2023/04/06 03:13:09;;;;;;;12.38;7.45;;;6.90;57.00;;;;;;5047099;28;20040;-62
2023/04/06 03:16:07;;;;;;;12.18;7.47;;;6.90;57.10;;;;;;5052121;28;20120;-62
2023/04/06 03:18:34;;;;;;;12.75;7.38;;;6.80;57.10;;;;;;5045829;28;20021;-62
2023/04/06 03:21:00;;;;;;;12.95;7.55;;;6.80;57.20;;;;;;5044195;28;20033;-62
2023/04/06 03:23:43;;;;;;;12.07;6.93;;;6.80;57.20;;;;;;5042899;28;20026;-62
2023/04/06 03:26:09;;;;;;;12.88;7.55;;;6.80;57.30;;;;;;5022146;28;20040;-62
2023/04/06 03:28:35;;;;;;;11.82;7.30;;;6.80;57.40;;;;;;5048850;28;20086;-62
2023/04/06 03:31:04;;;;;;;13.00;7.10;;;6.80;57.30;;;;;;5039098;28;20045;-62
2023/04/06 03:33:56;;;;;;;13.45;7.75;;;6.80;57.40;;;;;;5032526;28;20052;-62
2023/04/06 03:36:26;;;;;;;12.68;7.60;;;6.90;57.40;;;;;;5046468;28;20028;-61
2023/04/06 03:38:54;;;;;;;13.75;7.88;;;6.80;57.40;;;;;;5033834;28;20029;-62
2023/04/06 03:41:20;;;;;;;14.07;7.78;;;6.90;57.50;;;;;;5042931;28;20469;-62
2023/04/06 03:43:56;;;;;;;11.38;7.05;;;6.90;57.50;;;;;;5045506;28;20029;-62
2023/04/06 03:46:22;;;;;;;14.40;7.28;;;6.90;57.60;;;;;;5038814;28;20025;-62
2023/04/06 03:48:51;;;;;;;12.52;7.85;;;6.90;57.60;;;;;;5044621;28;20079;-60
2023/04/06 03:51:19;;;;;;;14.73;7.68;;;6.90;57.60;;;;;;5020585;28;20025;-61
2023/04/06 03:53:47;;;;;;;12.65;7.50;;;6.90;57.50;;;;;;5039410;28;20041;-61
2023/04/06 03:56:14;;;;;;;15.27;8.07;;;6.90;57.50;;;;;;5037820;28;20489;-61
2023/04/06 03:58:40;;;;;;;12.40;7.88;;;6.90;57.50;;;;;;5034289;28;20026;-61
2023/04/06 04:01:06;;;;;;;12.88;7.43;;;6.90;57.30;;;;;;5029449;28;20478;-61
2023/04/06 04:03:34;;;;;;;14.00;7.78;;;6.90;57.20;;;;;;5038898;28;20025;-61
2023/04/06 04:05:59;;;;;;;14.02;8.40;;;6.90;57.20;;;;;;5031214;28;20048;-61
2023/04/06 04:08:25;;;;;;;12.88;7.93;;;7.00;57.30;;;;;;5028249;28;20029;-61
2023/04/06 04:10:51;;;;;;;14.55;8.20;;;7.00;57.40;;;;;;5013542;28;20112;-61
2023/04/06 04:13:18;;;;;;;14.93;8.10;;;6.90;57.40;;;;;;5027946;28;20088;-61
2023/04/06 04:15:47;;;;;;;12.95;8.00;;;6.90;57.30;;;;;;5017051;28;20018;-61
2023/04/06 04:18:14;;;;;;;13.93;8.13;;;6.90;57.40;;;;;;5028706;28;20128;-61
2023/04/06 04:20:40;;;;;;;13.98;7.70;;;6.90;57.30;;;;;;5020609;28;20136;-61
2023/04/06 04:23:08;;;;;;;13.63;8.00;;;7.00;57.30;;;;;;5015312;28;20041;-61
2023/04/06 04:25:35;;;;;;;15.20;8.40;;;7.00;57.30;;;;;;4998533;28;20076;-61
2023/04/06 04:28:01;;;;;;;17.05;8.63;;;7.00;57.40;;;;;;5003665;28;20474;-61
2023/04/06 04:30:27;;;;;;;14.75;8.77;;;7.00;57.30;;;;;;5028305;28;20021;-61
2023/04/06 04:32:53;;;;;;;14.90;9.20;;;7.00;57.30;;;;;;5022520;28;20414;-61
2023/04/06 04:35:21;;;;;;;14.85;8.20;;;7.00;57.20;;;;;;5007004;28;20033;-61
2023/04/06 04:37:48;;;;;;;14.23;7.80;;;7.00;57.20;;;;;;5025087;28;20018;-60
2023/04/06 04:40:16;;;;;;;12.95;8.45;;;7.00;57.30;;;;;;5020003;28;20421;-62
2023/04/06 04:43:02;;;;;;;14.73;8.23;;;7.00;57.40;;;;;;5016280;28;20124;-62
2023/04/06 04:45:32;;;;;;;15.00;8.38;;;7.00;57.50;;;;;;5015160;28;20029;-62
2023/04/06 04:48:04;;;;;;;15.02;8.57;;;7.00;57.60;;;;;;5013243;28;20482;-62
2023/04/06 04:50:39;;;;;;;12.88;8.45;;;7.00;57.60;;;;;;5016931;28;20026;-62
2023/04/06 04:53:05;;;;;;;15.25;8.35;;;7.00;57.70;;;;;;5014850;28;20057;-62
2023/04/06 04:55:32;;;;;;;14.10;8.30;;;7.00;57.70;;;;;;5019870;28;20163;-62
2023/04/06 04:57:59;;;;;;;14.65;8.65;;;7.00;57.50;;;;;;5022514;28;20056;-62
2023/04/06 05:00:39;;;;;;;13.98;8.55;;;7.00;57.50;;;;;;5040027;28;20029;-62
2023/04/06 05:03:06;;;;;;;15.43;8.68;;;7.10;57.50;;;;;;5033377;28;20021;-62
2023/04/06 05:05:35;;;;;;;17.05;9.00;;;7.10;57.50;;;;;;5030407;28;20112;-61
2023/04/06 05:08:02;;;;;;;15.27;8.48;;;7.10;57.60;;;;;;5037571;28;20444;-62
2023/04/06 05:10:47;;;;;;;13.57;8.40;;;7.10;57.60;;;;;;5039119;28;20030;-62
2023/04/06 05:13:14;;;;;;;17.15;9.35;;;7.10;57.60;;;;;;5030719;28;20018;-62
2023/04/06 05:15:40;;;;;;;14.43;9.02;;;7.10;57.70;;;;;;5039613;28;20056;-62
2023/04/06 05:18:19;;;;;;;16.17;9.25;;;7.10;57.80;;;;;;5024465;28;20082;-62
2023/04/06 05:20:47;;;;;;;16.27;9.45;;;7.10;57.80;;;;;;5035494;28;20485;-62
2023/04/06 05:23:13;;;;;;;13.27;8.60;;;7.10;57.80;;;;;;5036548;28;20033;-62
2023/04/06 05:25:39;;;;;;;16.38;10.25;;;7.10;57.60;;;;;;5041284;28;20505;-62
2023/04/06 05:28:15;;;;;;;15.73;10.02;;;7.20;57.70;;;;;;5032150;28;20030;-61
2023/04/06 05:30:43;;;;;;;18.23;10.23;;;7.20;57.80;;;;;;5036383;28;20029;-61
2023/04/06 05:33:10;;;;;;;15.18;9.32;;;7.20;57.90;;;;;;5037826;28;20100;-62
2023/04/06 05:35:56;;;;;;;15.88;8.98;;;7.20;57.90;;;;;;5042830;28;20025;-62
2023/04/06 05:38:22;;;;;;;17.05;10.05;;;7.20;57.90;;;;;;5042283;28;20025;-61
2023/04/06 05:40:50;;;;;;;17.75;10.15;;;7.30;57.90;;;;;;5031840;28;20029;-61
2023/04/06 05:43:19;;;;;;;20.73;9.90;;;7.30;57.80;;;;;;5040956;28;20032;-61
2023/04/06 05:45:51;;;;;;;16.98;9.07;;;7.30;57.80;;;;;;5036882;28;20025;-61
2023/04/06 05:48:17;;;;;;;15.73;9.20;;;7.40;57.60;;;;;;5052886;28;20027;-61
2023/04/06 05:50:43;;;;;;;16.48;9.52;;;7.40;57.30;;;;;;5052879;28;20029;-61
2023/04/06 05:53:12;;;;;;;15.75;10.32;;;7.50;57.10;;;;;;5043485;28;20072;-61
2023/04/06 05:55:42;;;;;;;16.48;9.05;;;7.60;57.00;;;;;;5050026;28;20036;-61
2023/04/06 05:58:13;;;;;;;17.27;9.97;;;7.60;56.90;;;;;;5044484;28;20108;-61
2023/04/06 06:00:39;;;;;;;17.00;10.18;;;7.70;56.90;;;;;;5029941;28;20363;-61
2023/04/06 06:03:08;;;;;;;18.05;11.57;;;7.70;56.80;;;;;;5041849;28;20028;-61
2023/04/06 06:05:35;;;;;;;15.68;10.40;;;7.80;56.80;;;;;;5046182;28;20029;-61
2023/04/06 06:08:23;;;;;;;16.10;9.82;;;7.90;56.70;;;;;;5038756;28;20033;-61
2023/04/06 06:10:50;;;;;;;17.70;10.13;;;8.00;56.50;;;;;;5044336;28;20049;-61
2023/04/06 06:13:19;;;;;;;16.02;9.48;;;8.10;56.20;;;;;;5046858;28;20365;-62
2023/04/06 06:15:46;;;;;;;15.38;9.57;;;8.20;56.00;;;;;;5032717;28;20017;-61
2023/04/06 06:18:12;;;;;;;17.05;10.07;;;8.30;56.00;;;;;;5049296;28;20401;-62
2023/04/06 06:20:38;;;;;;;16.45;11.20;;;8.50;55.60;;;;;;5044740;28;20043;-63
2023/04/06 06:23:05;;;;;;;16.70;10.23;;;8.70;55.20;;;;;;5038368;28;20108;-62
2023/04/06 06:25:32;;;;;;;20.67;10.65;;;8.80;54.80;;;;;;5035520;28;20048;-62
2023/04/06 06:27:59;;;;;;;18.70;11.15;;;8.90;54.50;;;;;;5033054;28;20029;-62
2023/04/06 06:30:26;;;;;;;16.50;10.18;;;8.90;54.40;;;;;;5032534;28;20032;-63
2023/04/06 06:32:52;;;;;;;16.77;10.70;;;8.90;54.20;;;;;;5035497;28;20044;-62
2023/04/06 06:35:18;;;;;;;19.98;11.63;;;8.90;54.10;;;;;;5037290;28;20448;-62
2023/04/06 06:37:46;;;;;;;17.83;9.98;;;8.90;54.00;;;;;;5055220;28;20458;-62
2023/04/06 06:40:16;;;;;;;18.88;10.02;;;9.00;53.90;;;;;;5040432;28;20084;-62
2023/04/06 06:42:43;;;;;;;17.63;10.60;;;9.30;53.50;;;;;;5050386;28;20769;-62
2023/04/06 06:45:21;;;;;;;16.50;10.00;;;9.70;52.90;;;;;;5032144;28;20128;-62
2023/04/06 06:47:47;;;;;;;16.70;10.57;;;10.10;52.40;;;;;;5055191;28;20059;-62
2023/04/06 06:50:13;;;;;;;15.00;9.77;;;10.40;51.70;;;;;;5047217;28;20372;-62
2023/04/06 06:52:40;;;;;;;16.42;9.95;;;10.60;51.20;;;;;;5036039;28;20361;-62
2023/04/06 06:55:06;;;;;;;16.15;9.38;;;10.80;51.00;;;;;;5043536;28;20430;-62
2023/04/06 06:57:32;;;;;;;18.17;9.20;;;11.00;50.80;;;;;;5050057;28;20383;-62
2023/04/06 06:59:59;;;;;;;16.67;9.27;;;11.10;50.60;;;;;;5042736;28;20045;-66
2023/04/06 07:02:26;;;;;;;18.13;9.93;;;11.20;50.60;;;;;;5032069;28;20087;-63
2023/04/06 07:04:52;;;;;;;15.95;10.15;;;11.20;50.40;;;;;;5050702;28;20028;-64
2023/04/06 07:07:18;;;;;;;15.95;9.93;;;11.20;50.30;;;;;;5029895;28;20021;-63
2023/04/06 07:09:43;;;;;;;18.65;9.80;;;11.10;50.30;;;;;;5055471;28;20025;-63
2023/04/06 07:12:09;;;;;;;18.58;10.48;;;11.00;50.40;;;;;;5041242;28;20318;-63
2023/04/06 07:14:36;;;;;;;19.63;10.98;;;10.90;50.40;;;;;;5044573;28;20468;-63
2023/04/06 07:17:02;;;;;;;24.45;10.75;;;10.90;50.50;;;;;;5028606;28;20026;-63
2023/04/06 07:19:28;;;;;;;19.13;10.63;;;10.80;50.50;;;;;;5038444;28;20025;-63
2023/04/06 07:21:54;;;;;;;18.08;10.38;;;10.80;50.60;;;;;;5014022;28;20132;-62
2023/04/06 07:24:20;;;;;;;20.65;12.05;;;10.70;50.70;;;;;;5045758;28;20071;-63
2023/04/06 07:26:46;;;;;;;16.05;9.85;;;10.70;50.70;;;;;;5046343;28;20044;-63
2023/04/06 07:29:12;;;;;;;18.23;11.48;;;10.70;50.70;;;;;;5041103;28;20171;-63
2023/04/06 07:31:38;;;;;;;16.35;10.65;;;10.70;50.60;;;;;;5033671;28;20116;-63
2023/04/06 07:34:04;;;;;;;16.52;10.32;;;10.70;50.70;;;;;;5046453;28;20532;-63
2023/04/06 07:36:30;;;;;;;19.83;10.25;;;10.70;50.60;;;;;;5042080;28;20037;-63
2023/04/06 07:38:56;;;;;;;22.60;11.18;;;10.80;50.60;;;;;;5032511;28;20021;-63
2023/04/06 07:41:23;;;;;;;17.77;10.48;;;10.90;50.60;;;;;;5034601;28;20434;-63
2023/04/06 07:43:49;;;;;;;18.55;11.48;;;10.90;50.40;;;;;;5047606;28;20461;-63
2023/04/06 07:46:16;;;;;;;20.77;11.93;;;11.00;50.40;;;;;;5051748;28;20414;-62
2023/04/06 07:48:42;;;;;;;18.75;10.18;;;11.00;50.20;;;;;;5044016;28;20059;-64
2023/04/06 07:51:08;;;;;;;18.10;10.82;;;11.10;50.10;;;;;;5036270;28;20090;-64
2023/04/06 07:53:38;;;;;;;17.25;10.25;;;11.00;50.00;;;;;;5044394;28;20068;-64
2023/04/06 07:56:04;;;;;;;17.40;10.32;;;11.00;50.10;;;;;;5055013;28;20357;-65
2023/04/06 07:58:30;;;;;;;18.73;11.20;;;10.90;50.20;;;;;;5036385;28;20024;-64
2023/04/06 08:00:57;;;;;;;17.00;9.98;;;10.90;50.40;;;;;;5053615;28;20426;-63
2023/04/06 08:03:25;;;;;;;16.77;10.60;;;10.80;50.30;;;;;;5038180;28;20029;-64
2023/04/06 08:05:52;;;;;;;16.95;10.50;;;10.70;50.50;;;;;;5034706;28;20478;-64
2023/04/06 08:08:19;;;;;;;16.55;9.63;;;10.70;50.60;;;;;;5033405;28;20450;-63
2023/04/06 08:10:45;;;;;;;18.15;10.23;;;10.60;50.70;;;;;;5034509;28;20048;-63
2023/04/06 08:13:10;;;;;;;17.25;10.63;;;10.60;50.80;;;;;;5017299;28;20033;-63
2023/04/06 08:15:37;;;;;;;18.60;11.63;;;10.60;50.90;;;;;;5034380;28;20037;-64
2023/04/06 08:18:02;;;;;;;17.88;10.88;;;10.60;50.90;;;;;;5032130;28;20421;-63
2023/04/06 08:20:28;;;;;;;18.80;10.88;;;10.50;51.00;;;;;;5033292;28;20159;-63
2023/04/06 08:22:54;;;;;;;18.30;10.52;;;10.50;51.10;;;;;;5032940;28;20072;-63
2023/04/06 08:25:20;;;;;;;17.77;10.73;;;10.50;51.20;;;;;;5033583;28;20338;-63
2023/04/06 08:27:46;;;;;;;16.20;10.68;;;10.50;51.20;;;;;;5033350;28;20484;-63
2023/04/06 08:30:12;;;;;;;17.60;10.50;;;10.50;51.20;;;;;;5015640;28;20017;-63
2023/04/06 08:32:37;;;;;;;18.13;10.32;;;10.60;51.20;;;;;;5026318;28;20052;-63
2023/04/06 08:35:04;;;;;;;20.42;10.77;;;10.60;51.10;;;;;;5033644;28;20110;-63
2023/04/06 08:37:29;;;;;;;15.80;9.93;;;10.60;51.00;;;;;;5034234;28;20032;-63
2023/04/06 08:39:55;;;;;;;17.08;10.25;;;10.70;50.90;;;;;;5031672;28;20030;-63
2023/04/06 08:42:25;;;;;;;16.73;10.07;;;10.70;50.80;;;;;;5033887;28;20465;-63
2023/04/06 08:44:52;;;;;;;18.50;10.52;;;10.80;50.60;;;;;;5034028;28;20097;-63
2023/04/06 08:47:18;;;;;;;20.95;9.70;;;10.80;50.30;;;;;;5034383;28;20022;-63
2023/04/06 08:49:45;;;;;;;19.73;11.30;;;10.90;50.20;;;;;;5032251;28;20477;-63
2023/04/06 08:52:11;;;;;;;15.90;10.50;;;10.90;50.10;;;;;;5033887;28;20053;-63
2023/04/06 08:54:38;;;;;;;17.75;11.00;;;11.00;50.10;;;;;;5034401;28;20069;-63
2023/04/06 08:57:05;;;;;;;18.27;10.43;;;11.00;49.90;;;;;;5034165;28;20095;-63
2023/04/06 08:59:32;;;;;;;18.42;10.70;;;11.10;49.70;;;;;;5036419;28;20041;-63
2023/04/06 09:02:03;;;;;;;18.70;11.35;;;11.10;49.70;;;;;;5046385;28;20032;-63
2023/04/06 09:04:28;;;;;;;17.92;10.48;;;11.20;49.70;;;;;;5050742;28;20074;-63
2023/04/06 09:06:54;;;;;;;16.98;10.60;;;11.20;49.60;;;;;;5053871;28;20430;-63
2023/04/06 09:09:20;;;;;;;17.45;9.77;;;11.20;49.60;;;;;;5051662;28;20045;-63
2023/04/06 09:11:48;;;;;;;16.77;10.57;;;11.20;49.60;;;;;;5038050;28;20029;-63
2023/04/06 09:14:15;;;;;;;18.13;9.93;;;11.30;49.60;;;;;;5046250;28;20060;-63
2023/04/06 09:16:42;;;;;;;21.10;10.85;;;11.40;49.50;;;;;;5049728;28;20059;-63
2023/04/06 09:19:09;;;;;;;18.83;10.60;;;11.50;49.40;;;;;;5051123;28;20053;-63
2023/04/06 09:21:37;;;;;;;19.05;10.38;;;11.60;49.40;;;;;;5036770;28;20120;-63
2023/04/06 09:24:03;;;;;;;18.73;10.90;;;11.70;49.30;;;;;;5051554;28;20040;-63
2023/04/06 09:26:29;;;;;;;17.17;10.00;;;11.80;49.20;;;;;;5052959;28;20379;-63
2023/04/06 09:28:57;;;;;;;18.50;11.02;;;11.90;49.10;;;;;;5047157;28;20096;-63
2023/04/06 09:31:25;;;;;;;17.15;10.80;;;11.90;49.00;;;;;;5042215;28;20126;-63
2023/04/06 09:33:52;;;;;;;19.23;11.02;;;12.00;48.90;;;;;;5048931;28;20059;-63
2023/04/06 09:36:19;;;;;;;17.17;10.43;;;12.00;48.90;;;;;;5051247;28;20104;-63
2023/04/06 09:38:56;;;;;;;17.00;10.38;;;12.10;49.00;;;;;;5053656;28;20112;-63
2023/04/06 09:41:25;;;;;;;19.30;11.32;;;12.10;49.00;;;;;;5045282;28;20025;-63
2023/04/06 09:44:08;;;;;;;17.52;10.73;;;12.20;49.10;;;;;;5050341;28;20021;-63
2023/04/06 09:46:45;;;;;;;18.70;11.52;;;12.20;49.10;;;;;;5049564;28;20112;-63
2023/04/06 09:49:12;;;;;;;15.82;9.98;;;12.30;49.20;;;;;;5056734;28;20025;-63
2023/04/06 09:51:43;;;;;;;19.73;11.68;;;12.30;49.10;;;;;;5056217;28;20045;-63
2023/04/06 09:54:11;;;;;;;18.65;11.02;;;12.50;49.00;;;;;;5055078;28;20045;-63
2023/04/06 09:56:47;;;;;;;17.83;11.07;;;12.60;48.90;;;;;;5049977;28;20078;-63
2023/04/06 09:59:17;;;;;;;19.38;10.88;;;12.60;48.80;;;;;;5056320;28;20362;-63
2023/04/06 10:01:43;;;;;;;18.35;11.05;;;12.70;48.60;;;;;;5057227;28;20472;-63
2023/04/06 10:04:29;;;;;;;18.30;12.15;;;12.80;48.50;;;;;;5056227;28;20051;-63
2023/04/06 10:06:56;;;;;;;18.45;10.48;;;12.80;48.50;;;;;;5048220;28;20376;-63
2023/04/06 10:09:28;;;;;;;18.00;11.00;;;12.80;48.70;;;;;;5057150;28;20341;-63
2023/04/06 10:11:55;;;;;;;19.63;11.45;;;12.80;48.80;;;;;;5041662;28;20029;-63
2023/04/06 10:14:21;;;;;;;19.45;12.18;;;12.80;48.70;;;;;;5035962;28;20422;-63
2023/04/06 10:16:49;;;;;;;19.48;11.32;;;12.90;48.60;;;;;;5046336;28;20032;-63
2023/04/06 10:19:26;;;;;;;20.52;11.48;;;12.90;48.50;;;;;;5051770;28;20438;-63
2023/04/06 10:21:56;;;;;;;20.00;11.27;;;12.90;48.50;;;;;;5042864;28;20112;-63
2023/04/06 10:24:22;;;;;;;21.15;11.43;;;12.90;48.40;;;;;;5034578;28;20040;-64
2023/04/06 10:27:01;;;;;;;18.75;10.70;;;13.00;48.40;;;;;;5035833;28;20037;-63
2023/04/06 10:29:27;;;;;;;19.73;11.55;;;12.90;48.30;;;;;;5037195;28;20060;-63
2023/04/06 10:31:55;;;;;;;19.13;11.52;;;12.90;48.40;;;;;;5031799;28;20230;-63
2023/04/06 10:34:20;;;;;;;17.60;10.00;;;12.90;48.40;;;;;;5041931;28;20487;-63
2023/04/06 10:36:46;;;;;;;18.27;10.88;;;12.90;48.50;;;;;;5043179;28;20025;-63
2023/04/06 10:39:12;;;;;;;18.42;10.68;;;12.90;48.50;;;;;;5040300;28;20091;-63
2023/04/06 10:41:43;;;;;;;18.08;10.85;;;12.90;48.60;;;;;;5055885;28;20051;-63
2023/04/06 10:44:21;;;;;;;16.17;9.20;;;12.90;48.70;;;;;;5045117;28;20064;-63
2023/04/06 10:46:56;;;;;;;14.52;9.02;;;12.90;48.70;;;;;;5046019;28;20468;-63
2023/04/06 10:49:24;;;;;;;16.85;10.05;;;12.90;48.80;;;;;;5041012;28;20029;-63
2023/04/06 10:51:56;;;;;;;17.23;9.85;;;12.90;48.80;;;;;;5036453;28;20017;-64
2023/04/06 10:54:25;;;;;;;16.77;10.13;;;12.90;48.80;;;;;;5035106;28;20125;-64
2023/04/06 10:56:51;;;;;;;17.10;10.30;;;12.80;48.90;;;;;;5034036;28;20029;-63
2023/04/06 10:59:21;;;;;;;15.50;9.93;;;12.80;49.00;;;;;;5037600;28;20036;-63
2023/04/06 11:01:47;;;;;;;17.35;10.27;;;12.90;49.00;;;;;;5025801;28;20025;-64
2023/04/06 11:04:17;;;;;;;15.80;9.32;;;13.00;49.10;;;;;;5038714;28;20025;-62
2023/04/06 11:06:48;;;;;;;19.38;10.73;;;13.10;49.00;;;;;;5043908;28;20033;-63
2023/04/06 11:09:27;;;;;;;15.23;9.23;;;13.30;49.00;;;;;;5031956;28;20040;-63
2023/04/06 11:11:55;;;;;;;15.55;9.55;;;13.40;48.90;;;;;;5040441;28;20032;-64
2023/04/06 11:14:20;;;;;;;14.27;9.15;;;13.40;48.80;;;;;;5041227;28;20049;-63
2023/04/06 11:16:51;;;;;;;14.80;9.18;;;13.30;49.00;;;;;;5032436;28;20441;-64
2023/04/06 11:19:17;;;;;;;15.40;9.52;;;13.40;49.20;;;;;;5035126;28;20030;-64
2023/04/06 11:21:47;;;;;;;14.88;9.10;;;13.30;49.30;;;;;;5037428;28;20108;-65
2023/04/06 11:24:18;;;;;;;13.43;8.93;;;13.40;49.40;;;;;;5031852;28;20099;-64
2023/04/06 11:27:04;;;;;;;14.40;8.63;;;13.40;49.50;;;;;;5032642;28;20029;-63
2023/04/06 11:29:31;;;;;;;11.93;8.13;;;13.30;49.50;;;;;;5046201;28;20417;-63
2023/04/06 11:32:02;;;;;;;15.30;8.75;;;13.40;49.60;;;;;;5033521;28;20129;-63
2023/04/06 11:34:36;;;;;;;15.05;9.00;;;13.40;49.60;;;;;;5045693;28;20140;-63
2023/04/06 11:37:11;;;;;;;14.43;8.73;;;13.40;49.60;;;;;;5030115;28;20497;-64
2023/04/06 11:39:50;;;;;;;15.25;8.40;;;13.40;49.70;;;;;;5038935;28;20029;-64
2023/04/06 11:42:27;;;;;;;14.15;8.38;;;13.40;49.80;;;;;;5042706;28;20021;-65
2023/04/06 11:44:55;;;;;;;13.77;8.40;;;13.40;50.00;;;;;;5032001;28;20048;-64
2023/04/06 11:47:34;;;;;;;14.10;8.35;;;13.40;50.10;;;;;;5044786;28;20095;-65
2023/04/06 11:50:13;;;;;;;13.63;7.25;;;13.30;50.40;;;;;;5043356;28;20052;-65
2023/04/06 11:52:40;;;;;;;14.70;7.53;;;13.20;50.90;;;;;;5047779;28;20460;-64
2023/04/06 11:55:15;;;;;;;14.30;7.70;;;13.20;51.80;;;;;;5048448;28;20049;-64
2023/04/06 11:57:42;;;;;;;12.55;7.55;;;13.10;52.00;;;;;;5040145;28;20068;-64
2023/04/06 12:00:09;;;;;;;12.68;7.13;;;13.10;52.30;;;;;;5041865;28;20021;-62
2023/04/06 12:02:36;;;;;;;11.85;6.80;;;13.00;52.80;;;;;;5052165;28;20495;-65
2023/04/06 12:05:05;;;;;;;11.73;7.10;;;13.00;53.40;;;;;;5049560;28;20042;-64
2023/04/06 12:07:31;;;;;;;12.55;7.60;;;12.90;54.20;;;;;;5040602;28;20498;-64
2023/04/06 12:09:58;;;;;;;12.48;7.35;;;12.80;54.60;;;;;;5037741;28;20425;-64
2023/04/06 12:12:24;;;;;;;12.77;7.13;;;12.80;55.10;;;;;;5034655;28;20092;-65
2023/04/06 12:14:50;;;;;;;11.82;7.32;;;12.70;55.40;;;;;;5038569;28;20029;-65
2023/04/06 12:17:15;;;;;;;12.15;7.60;;;12.70;55.80;;;;;;5043160;28;20025;-65
2023/04/06 12:19:41;;;;;;;12.25;6.55;;;12.60;56.20;;;;;;5047837;28;20025;-65
2023/04/06 12:22:08;;;;;;;11.52;7.03;;;12.60;56.50;;;;;;5053285;28;20029;-65
2023/04/06 12:24:33;;;;;;;12.68;7.65;;;12.50;56.80;;;;;;5035839;28;20029;-65
2023/04/06 12:27:01;;;;;;;12.88;7.47;;;12.40;57.10;;;;;;5048625;28;20472;-63
2023/04/06 12:29:27;;;;;;;15.60;7.28;;;12.40;57.40;;;;;;5047384;28;20097;-64
2023/04/06 12:31:52;;;;;;;12.10;7.28;;;12.30;57.80;;;;;;5037132;28;20137;-64
2023/04/06 12:34:18;;;;;;;13.27;7.13;;;12.20;58.20;;;;;;5035191;28;20082;-64
2023/04/06 12:36:44;;;;;;;11.35;7.07;;;12.20;58.60;;;;;;5042176;28;20455;-64
2023/04/06 12:39:10;;;;;;;11.63;6.60;;;12.10;58.90;;;;;;5052977;28;20093;-64
2023/04/06 12:41:36;;;;;;;12.50;7.13;;;12.10;59.00;;;;;;5041665;28;20450;-64
2023/04/06 12:44:02;;;;;;;10.43;6.40;;;12.00;59.30;;;;;;5031510;28;20032;-64
2023/04/06 12:46:32;;;;;;;11.60;6.43;;;12.00;59.50;;;;;;5041518;28;20025;-64